Time;durP1;ratioP1;P1;durP2;ratioP2;P2;SDS_P1;SDS_P2;PMS_P1;PMS_P2;Temp;Humidity;BMP_temperature;BMP_pressure;BME280_temperature;BME280_humidity;BME280_pressure;Samples;Min_cycle;Max_cycle;Signal;HPM_P1;HPM_P2
2023/04/28 00:01:43;;;;;;;20.50;13.97;;;8.40;99.90;;;;;;4993775;28;20282;-78
2023/04/28 00:04:09;;;;;;;21.65;14.57;;;8.20;99.90;;;;;;4993509;28;20473;-79
2023/04/28 00:06:36;;;;;;;20.50;14.10;;;8.10;99.90;;;;;;4994991;28;20665;-79
2023/04/28 00:09:02;;;;;;;16.45;13.25;;;8.10;99.90;;;;;;4993811;28;20524;-79
2023/04/28 00:11:28;;;;;;;18.92;14.60;;;8.00;99.90;;;;;;4993700;28;20258;-88
2023/04/28 00:13:54;;;;;;;22.77;14.80;;;7.90;99.90;;;;;;4995212;28;20219;-88
2023/04/28 00:16:19;;;;;;;18.53;14.37;;;7.90;99.90;;;;;;4993653;28;20476;-79
2023/04/28 00:18:45;;;;;;;16.60;14.03;;;7.90;99.90;;;;;;4995111;28;20486;-79
2023/04/28 00:21:11;;;;;;;21.73;16.03;;;7.80;99.90;;;;;;4994712;28;20207;-79
2023/04/28 00:23:37;;;;;;;22.50;17.57;;;7.80;99.90;;;;;;4995075;28;20542;-86
2023/04/28 00:26:02;;;;;;;19.87;15.87;;;7.70;99.90;;;;;;4993560;28;20204;-79
2023/04/28 00:28:28;;;;;;;20.50;15.67;;;7.70;99.90;;;;;;4995078;28;20434;-88
2023/04/28 00:30:54;;;;;;;23.50;16.63;;;7.50;99.90;;;;;;4994654;28;20199;-88
2023/04/28 00:33:19;;;;;;;23.10;16.30;;;7.50;99.90;;;;;;4993501;28;20216;-88
2023/04/28 00:35:45;;;;;;;24.67;16.20;;;7.40;99.90;;;;;;4994719;28;20440;-88
2023/04/28 00:38:11;;;;;;;22.23;17.47;;;7.50;99.90;;;;;;4994826;28;20183;-88
2023/04/28 00:40:38;;;;;;;19.90;17.10;;;7.50;99.90;;;;;;4993265;28;20593;-79
2023/04/28 00:43:04;;;;;;;20.33;17.45;;;7.50;99.90;;;;;;4993442;28;20275;-79
2023/04/28 00:45:30;;;;;;;25.42;16.67;;;7.40;99.90;;;;;;4994410;28;20665;-79
2023/04/28 00:47:58;;;;;;;17.88;15.98;;;7.40;99.90;;;;;;4993607;28;20283;-87
2023/04/28 00:50:25;;;;;;;20.13;17.25;;;7.40;99.90;;;;;;4993253;28;20203;-85
2023/04/28 00:52:51;;;;;;;23.45;16.17;;;7.50;99.90;;;;;;4994471;28;20222;-88
2023/04/28 00:55:17;;;;;;;22.60;18.27;;;7.50;99.90;;;;;;4993124;28;20222;-78
2023/04/28 00:57:44;;;;;;;19.17;16.07;;;7.60;99.90;;;;;;4994229;28;20176;-79
2023/04/28 01:00:11;;;;;;;25.85;16.65;;;7.50;99.90;;;;;;4993609;28;20449;-79
2023/04/28 01:02:37;;;;;;;21.60;16.67;;;7.40;99.90;;;;;;4994277;28;20626;-88
2023/04/28 01:05:02;;;;;;;23.55;15.95;;;7.30;99.90;;;;;;4994133;28;20461;-79
2023/04/28 01:07:28;;;;;;;21.87;16.83;;;7.40;99.90;;;;;;4994439;28;20171;-79
2023/04/28 01:09:55;;;;;;;21.92;17.27;;;7.30;99.90;;;;;;4992929;28;20234;-79
2023/04/28 01:12:20;;;;;;;19.77;15.77;;;7.30;99.90;;;;;;4994193;28;20249;-79
2023/04/28 01:14:47;;;;;;;21.93;17.20;;;7.30;99.90;;;;;;4994231;28;20179;-79
2023/04/28 01:17:13;;;;;;;22.13;17.20;;;7.20;99.90;;;;;;4994259;28;20176;-79
2023/04/28 01:19:39;;;;;;;21.45;16.25;;;7.20;99.90;;;;;;4995201;28;20270;-79
2023/04/28 01:22:05;;;;;;;19.38;16.17;;;7.10;99.90;;;;;;4994465;28;20187;-79
2023/04/28 01:24:31;;;;;;;24.13;16.53;;;7.00;99.90;;;;;;4994702;28;20644;-88
2023/04/28 01:26:56;;;;;;;21.07;17.03;;;7.00;99.90;;;;;;4994072;28;20203;-79
2023/04/28 01:29:22;;;;;;;22.80;17.23;;;7.00;99.90;;;;;;4993240;28;20407;-87
2023/04/28 01:31:48;;;;;;;20.23;17.23;;;7.00;99.90;;;;;;4992628;28;20271;-87
2023/04/28 01:34:14;;;;;;;23.03;16.60;;;6.90;99.90;;;;;;4993093;28;20421;-88
2023/04/28 01:36:40;;;;;;;20.63;17.87;;;6.90;99.90;;;;;;4992836;28;20250;-87
2023/04/28 01:39:05;;;;;;;23.03;16.47;;;6.90;99.90;;;;;;4994357;28;20426;-78
2023/04/28 01:41:33;;;;;;;24.03;19.37;;;6.90;99.90;;;;;;4994123;28;20282;-87
2023/04/28 01:43:59;;;;;;;25.30;18.27;;;7.00;99.90;;;;;;4994290;28;20182;-79
2023/04/28 01:46:24;;;;;;;23.92;18.95;;;7.00;99.90;;;;;;4993989;28;20275;-79
2023/04/28 01:48:50;;;;;;;22.03;19.63;;;7.00;99.90;;;;;;4992811;28;20668;-87
2023/04/28 01:51:16;;;;;;;27.30;19.55;;;7.00;99.90;;;;;;4992790;28;20200;-79
2023/04/28 01:53:42;;;;;;;30.80;19.50;;;6.90;99.90;;;;;;4993752;28;20215;-79
2023/04/28 01:56:08;;;;;;;27.10;18.90;;;6.90;99.90;;;;;;4995031;28;20266;-79
2023/04/28 01:58:34;;;;;;;26.73;20.35;;;7.00;99.90;;;;;;4997596;28;20581;-87
2023/04/28 02:01:00;;;;;;;27.23;21.33;;;6.90;99.90;;;;;;4998424;28;20192;-79
2023/04/28 02:03:26;;;;;;;24.03;19.63;;;6.90;99.90;;;;;;4995922;28;20555;-87
2023/04/28 02:05:52;;;;;;;26.85;21.23;;;6.80;99.90;;;;;;4995965;28;20829;-87
2023/04/28 02:08:18;;;;;;;26.57;22.73;;;6.70;99.90;;;;;;4996049;28;20187;-87
2023/04/28 02:10:44;;;;;;;27.70;20.97;;;6.70;99.90;;;;;;4997191;28;20464;-87
2023/04/28 02:13:10;;;;;;;26.50;21.47;;;6.70;99.90;;;;;;4995887;28;20215;-87
2023/04/28 02:15:40;;;;;;;29.57;21.20;;;6.80;99.90;;;;;;4995910;28;20464;-87
2023/04/28 02:18:05;;;;;;;29.60;22.75;;;6.80;99.90;;;;;;4995842;28;20187;-87
2023/04/28 02:20:31;;;;;;;37.90;23.27;;;6.70;99.90;;;;;;4995864;28;20594;-87
2023/04/28 02:22:57;;;;;;;26.23;22.53;;;6.70;99.90;;;;;;4995675;28;20183;-87
2023/04/28 02:25:23;;;;;;;27.10;22.93;;;6.70;99.90;;;;;;4996937;28;20557;-88
2023/04/28 02:27:48;;;;;;;30.40;23.02;;;6.70;99.90;;;;;;4995445;28;20234;-78
2023/04/28 02:30:14;;;;;;;26.67;22.40;;;6.60;99.90;;;;;;4996086;28;20235;-79
2023/04/28 02:32:40;;;;;;;26.77;22.20;;;6.60;99.90;;;;;;4997222;28;20214;-87
2023/04/28 02:35:06;;;;;;;25.70;21.50;;;6.60;99.90;;;;;;4997918;28;20196;-87
2023/04/28 02:37:32;;;;;;;29.15;21.40;;;6.60;99.90;;;;;;4995441;28;20408;-79
2023/04/28 02:39:57;;;;;;;25.60;20.83;;;6.70;99.90;;;;;;4996686;28;20285;-87
2023/04/28 02:42:23;;;;;;;28.73;21.03;;;6.60;99.90;;;;;;4995347;28;20945;-87
2023/04/28 02:44:48;;;;;;;25.30;21.10;;;6.50;99.90;;;;;;4996553;28;20184;-87
2023/04/28 02:47:14;;;;;;;24.83;19.70;;;6.50;99.90;;;;;;4996759;28;20176;-79
2023/04/28 02:49:40;;;;;;;27.87;20.83;;;6.50;99.90;;;;;;4996922;28;20555;-87
2023/04/28 02:52:05;;;;;;;22.87;20.00;;;6.40;99.90;;;;;;4996523;28;20792;-81
2023/04/28 02:54:33;;;;;;;22.90;20.43;;;6.40;99.90;;;;;;4996895;28;20179;-78
2023/04/28 02:56:58;;;;;;;31.98;20.58;;;6.40;99.90;;;;;;4996289;28;20203;-83
2023/04/28 02:59:25;;;;;;;28.13;21.33;;;6.30;99.90;;;;;;4996712;28;20532;-87
2023/04/28 03:01:51;;;;;;;22.40;19.42;;;6.20;99.90;;;;;;4995216;28;20235;-87
2023/04/28 03:04:17;;;;;;;25.40;18.17;;;6.20;99.90;;;;;;4994874;28;20259;-79
2023/04/28 03:06:43;;;;;;;24.83;20.03;;;6.30;99.90;;;;;;4994524;28;20625;-87
2023/04/28 03:09:09;;;;;;;25.55;20.35;;;6.40;99.90;;;;;;4995878;28;20591;-79
2023/04/28 03:11:35;;;;;;;23.33;18.35;;;6.50;99.90;;;;;;4994711;28;20195;-79
2023/04/28 03:14:01;;;;;;;26.57;20.73;;;6.50;99.90;;;;;;4996201;28;20219;-79
2023/04/28 03:16:27;;;;;;;25.83;20.33;;;6.60;99.90;;;;;;4995859;28;20442;-87
2023/04/28 03:18:52;;;;;;;30.33;22.20;;;6.60;99.90;;;;;;4994721;28;20629;-87
2023/04/28 03:21:18;;;;;;;30.50;23.43;;;6.60;99.90;;;;;;4994762;28;20299;-81
2023/04/28 03:23:44;;;;;;;27.37;21.73;;;6.60;99.90;;;;;;4994744;28;20523;-78
2023/04/28 03:26:10;;;;;;;21.83;19.50;;;6.60;99.90;;;;;;4995123;28;20204;-86
2023/04/28 03:28:36;;;;;;;28.50;20.53;;;6.60;99.90;;;;;;4996179;28;20430;-79
2023/04/28 03:31:02;;;;;;;23.58;20.52;;;6.60;99.90;;;;;;4995648;28;20708;-79
2023/04/28 03:33:27;;;;;;;31.93;21.50;;;6.60;99.90;;;;;;4995786;28;20207;-79
2023/04/28 03:35:53;;;;;;;23.33;19.03;;;6.60;99.90;;;;;;4994340;28;20446;-87
2023/04/28 03:38:19;;;;;;;25.20;19.97;;;6.50;99.90;;;;;;4994438;28;20437;-87
2023/04/28 03:40:45;;;;;;;25.00;20.58;;;6.60;99.90;;;;;;4995334;28;20422;-87
2023/04/28 03:43:11;;;;;;;25.67;21.00;;;6.80;99.90;;;;;;4994288;28;20191;-88
2023/04/28 03:45:37;;;;;;;24.65;20.38;;;6.80;99.90;;;;;;4994143;28;20226;-88
2023/04/28 03:48:03;;;;;;;28.35;22.33;;;6.70;99.90;;;;;;4994214;28;20709;-87
2023/04/28 03:50:29;;;;;;;26.80;20.92;;;6.70;99.90;;;;;;4994117;28;20246;-78
2023/04/28 03:52:54;;;;;;;26.33;20.77;;;6.70;99.90;;;;;;4995416;28;20660;-87
2023/04/28 03:55:21;;;;;;;30.60;21.50;;;6.60;99.90;;;;;;4993940;28;20204;-78
2023/04/28 03:57:46;;;;;;;28.70;22.53;;;6.60;99.90;;;;;;4993953;28;20432;-87
2023/04/28 04:00:12;;;;;;;27.20;21.80;;;6.50;99.90;;;;;;4993094;28;20516;-87
2023/04/28 04:02:38;;;;;;;30.63;21.98;;;6.50;99.90;;;;;;4993892;28;20799;-78
2023/04/28 04:05:04;;;;;;;31.93;24.30;;;6.60;99.90;;;;;;4994876;28;20238;-87
2023/04/28 04:07:30;;;;;;;30.17;23.98;;;6.70;99.90;;;;;;4993726;28;20654;-79
2023/04/28 04:09:56;;;;;;;33.80;27.47;;;6.90;99.90;;;;;;4994829;28;20184;-79
2023/04/28 04:12:22;;;;;;;37.60;26.07;;;7.00;99.90;;;;;;4993536;28;20204;-78
2023/04/28 04:14:47;;;;;;;34.73;26.70;;;7.00;99.90;;;;;;4994616;28;20301;-86
2023/04/28 04:17:13;;;;;;;37.03;26.67;;;7.10;99.90;;;;;;4988260;28;20218;-79
2023/04/28 04:19:39;;;;;;;35.93;29.10;;;7.10;99.90;;;;;;4984930;28;20191;-79
2023/04/28 04:22:04;;;;;;;43.23;28.77;;;7.20;99.90;;;;;;4992499;28;20175;-88
2023/04/28 04:24:30;;;;;;;99.43;60.37;;;7.20;99.90;;;;;;4991808;28;20579;-79
2023/04/28 04:26:56;;;;;;;97.87;59.40;;;7.20;99.90;;;;;;4984253;28;20445;-78
2023/04/28 04:29:22;;;;;;;88.97;56.83;;;7.30;99.90;;;;;;4978632;28;20669;-88
2023/04/28 04:31:48;;;;;;;93.90;59.83;;;7.40;99.90;;;;;;4985961;28;20557;-88
2023/04/28 04:34:14;;;;;;;143.15;84.00;;;7.50;99.90;;;;;;4990921;28;20426;-88
2023/04/28 04:36:39;;;;;;;147.70;80.90;;;7.60;99.90;;;;;;4989558;28;20196;-87
2023/04/28 04:39:05;;;;;;;100.93;61.47;;;7.60;99.90;;;;;;4973253;28;20180;-79
2023/04/28 04:41:31;;;;;;;90.27;56.17;;;7.70;99.90;;;;;;4973409;28;20268;-88
2023/04/28 04:43:56;;;;;;;96.27;58.30;;;7.80;99.90;;;;;;4979999;28;20194;-87
2023/04/28 04:46:22;;;;;;;91.97;54.97;;;7.80;99.90;;;;;;4980043;28;20708;-79
2023/04/28 04:48:48;;;;;;;65.50;41.00;;;7.80;99.90;;;;;;4973183;28;20184;-79
2023/04/28 04:51:13;;;;;;;65.03;42.50;;;7.90;99.90;;;;;;4979239;28;20265;-79
2023/04/28 04:53:39;;;;;;;40.03;28.50;;;8.00;99.90;;;;;;4981314;28;20303;-88
2023/04/28 04:56:05;;;;;;;36.45;26.20;;;8.10;99.90;;;;;;4985264;28;20284;-89
2023/04/28 04:58:31;;;;;;;34.30;25.33;;;8.10;99.90;;;;;;4976958;28;20210;-90
2023/04/28 05:00:57;;;;;;;37.80;28.48;;;8.20;99.90;;;;;;4988339;28;20450;-88
2023/04/28 05:03:23;;;;;;;41.90;30.27;;;8.20;99.90;;;;;;4989829;28;20704;-89
2023/04/28 05:05:49;;;;;;;47.90;32.03;;;8.20;99.90;;;;;;4993094;28;20585;-78
2023/04/28 05:08:14;;;;;;;44.37;28.33;;;8.20;99.90;;;;;;4991440;28;20407;-78
2023/04/28 05:10:40;;;;;;;60.53;38.97;;;8.30;99.90;;;;;;4986777;28;20218;-91
2023/04/28 05:13:06;;;;;;;35.17;28.53;;;8.40;99.90;;;;;;4985873;28;20684;-87
2023/04/28 05:15:31;;;;;;;27.77;21.73;;;8.70;99.90;;;;;;4982691;28;20212;-87
2023/04/28 05:18:09;;;;;;;31.43;23.23;;;8.80;99.90;;;;;;4977718;28;20183;-89
2023/04/28 05:20:38;;;;;;;26.50;21.65;;;8.90;99.90;;;;;;4981961;28;20936;-83
2023/04/28 05:23:05;;;;;;;34.28;23.20;;;9.00;99.90;;;;;;4969886;28;20180;-87
2023/04/28 05:25:31;;;;;;;32.10;23.73;;;9.10;99.90;;;;;;4970906;28;20196;-78
2023/04/28 05:27:57;;;;;;;33.50;24.33;;;9.20;99.90;;;;;;4979574;28;20195;-84
2023/04/28 05:30:22;;;;;;;38.17;26.03;;;9.30;99.90;;;;;;4976207;28;20287;-78
2023/04/28 05:32:48;;;;;;;36.03;24.57;;;9.30;99.90;;;;;;4990194;28;20220;-78
2023/04/28 05:35:14;;;;;;;31.77;24.23;;;9.40;99.90;;;;;;4979123;28;20219;-78
2023/04/28 05:37:42;;;;;;;27.75;20.42;;;9.40;99.90;;;;;;4982701;28;20216;-86
2023/04/28 05:40:08;;;;;;;46.97;28.65;;;9.40;99.90;;;;;;4982454;28;20208;-86
2023/04/28 05:42:34;;;;;;;51.83;36.10;;;9.50;99.90;;;;;;4976317;28;20177;-87
2023/04/28 05:44:59;;;;;;;30.50;17.93;;;9.50;99.90;;;;;;4995570;28;20205;-86
2023/04/28 05:47:25;;;;;;;23.23;15.40;;;9.70;99.90;;;;;;4985684;28;20937;-87
2023/04/28 05:49:51;;;;;;;40.27;28.63;;;9.80;99.90;;;;;;4996385;28;20268;-88
2023/04/28 05:52:16;;;;;;;23.00;17.83;;;9.90;99.90;;;;;;4983070;28;20216;-86
2023/04/28 05:54:42;;;;;;;17.40;14.03;;;9.90;99.90;;;;;;5000817;28;20645;-79
2023/04/28 05:57:08;;;;;;;18.60;13.53;;;10.10;99.90;;;;;;4996482;28;20195;-85
2023/04/28 05:59:33;;;;;;;18.70;12.40;;;10.20;99.90;;;;;;4994270;28;20176;-87
2023/04/28 06:01:59;;;;;;;18.50;12.87;;;10.20;99.90;;;;;;4980444;28;20490;-87
2023/04/28 06:04:25;;;;;;;19.17;13.80;;;10.40;99.90;;;;;;4993842;28;20227;-88
2023/04/28 06:06:51;;;;;;;13.60;11.48;;;10.50;99.90;;;;;;4993819;28;20207;-79
2023/04/28 06:09:16;;;;;;;20.53;14.00;;;10.60;99.90;;;;;;4992395;28;20851;-88
2023/04/28 06:11:42;;;;;;;13.17;11.87;;;10.80;99.90;;;;;;4986173;28;20231;-88
2023/04/28 06:14:08;;;;;;;12.07;10.60;;;10.80;99.90;;;;;;4990178;28;20242;-87
2023/04/28 06:16:33;;;;;;;13.70;10.57;;;10.90;99.90;;;;;;4992538;28;20688;-79
2023/04/28 06:18:59;;;;;;;15.80;11.63;;;10.90;99.90;;;;;;5009888;28;20187;-87
2023/04/28 06:21:26;;;;;;;13.70;12.15;;;10.90;99.90;;;;;;4986088;28;20615;-87
2023/04/28 06:23:52;;;;;;;14.40;11.50;;;11.00;99.90;;;;;;4981097;28;20664;-89
2023/04/28 06:26:17;;;;;;;13.07;11.43;;;11.10;99.90;;;;;;4993438;28;20656;-90
2023/04/28 06:28:43;;;;;;;14.53;11.20;;;11.20;99.90;;;;;;4989536;28;20184;-88
2023/04/28 06:31:09;;;;;;;17.63;10.67;;;11.20;99.90;;;;;;4995804;28;20270;-87
2023/04/28 06:33:35;;;;;;;12.70;10.63;;;11.20;99.90;;;;;;4988019;28;20219;-88
2023/04/28 06:36:00;;;;;;;13.37;11.43;;;11.40;99.90;;;;;;4981379;28;20469;-80
2023/04/28 06:38:26;;;;;;;11.60;10.07;;;11.40;99.90;;;;;;4997585;28;20196;-87
2023/04/28 06:40:52;;;;;;;13.83;8.20;;;11.60;99.90;;;;;;4980139;28;20303;-79
2023/04/28 06:43:17;;;;;;;9.30;8.50;;;11.70;99.90;;;;;;4991223;28;20180;-79
2023/04/28 06:45:43;;;;;;;11.30;7.73;;;11.90;99.90;;;;;;4988891;28;20205;-79
2023/04/28 06:48:09;;;;;;;10.60;7.20;;;11.90;99.90;;;;;;4980778;28;20555;-88
2023/04/28 06:50:36;;;;;;;8.33;7.27;;;11.90;99.90;;;;;;4979611;28;20278;-79
2023/04/28 06:53:01;;;;;;;8.68;7.20;;;12.00;99.90;;;;;;4981878;28;21116;-81
2023/04/28 06:55:27;;;;;;;9.63;6.80;;;12.10;99.90;;;;;;4976924;28;20291;-88
2023/04/28 06:57:53;;;;;;;8.03;7.13;;;12.30;99.90;;;;;;4978192;28;20629;-80
2023/04/28 07:00:18;;;;;;;8.50;7.30;;;12.40;99.90;;;;;;4983001;28;20211;-80
2023/04/28 07:02:44;;;;;;;10.87;7.33;;;12.60;99.90;;;;;;4992503;28;20184;-79
2023/04/28 07:05:10;;;;;;;7.57;6.83;;;12.60;99.90;;;;;;4980114;28;20223;-88
2023/04/28 07:07:37;;;;;;;9.50;6.50;;;12.70;99.50;;;;;;4977414;28;20180;-88
2023/04/28 07:10:04;;;;;;;6.63;5.93;;;12.80;99.90;;;;;;4990325;28;20196;-80
2023/04/28 07:12:30;;;;;;;7.80;6.87;;;12.80;99.70;;;;;;4980130;28;20839;-79
2023/04/28 07:14:55;;;;;;;19.97;11.70;;;13.00;99.00;;;;;;4975366;28;20433;-88
2023/04/28 07:17:21;;;;;;;6.40;5.60;;;13.20;99.00;;;;;;4978161;28;20259;-80
2023/04/28 07:19:48;;;;;;;7.50;6.20;;;13.30;97.20;;;;;;4974847;28;20485;-89
2023/04/28 07:22:14;;;;;;;7.10;4.37;;;13.40;96.70;;;;;;4980926;28;20207;-79
2023/04/28 07:24:40;;;;;;;6.20;5.60;;;13.60;96.00;;;;;;4971836;28;20430;-87
2023/04/28 07:27:05;;;;;;;8.30;5.50;;;13.70;95.20;;;;;;4970691;28;20199;-80
2023/04/28 07:29:33;;;;;;;6.00;5.50;;;13.70;95.60;;;;;;4974463;28;20740;-87
2023/04/28 07:32:04;;;;;;;5.67;4.77;;;13.80;95.60;;;;;;4981463;28;20214;-90
2023/04/28 07:34:30;;;;;;;14.43;5.50;;;13.90;92.40;;;;;;4983859;28;20480;-89
2023/04/28 07:36:57;;;;;;;5.53;4.83;;;13.90;92.70;;;;;;4989974;28;20457;-89
2023/04/28 07:39:22;;;;;;;5.10;4.60;;;13.90;92.10;;;;;;4975103;28;20688;-80
2023/04/28 07:41:48;;;;;;;6.47;4.50;;;14.00;92.20;;;;;;4983234;28;20462;-80
2023/04/28 07:44:14;;;;;;;5.87;4.83;;;14.00;92.60;;;;;;4976143;28;20193;-90
2023/04/28 07:46:40;;;;;;;6.60;4.60;;;14.10;92.50;;;;;;4994198;28;20210;-90
2023/04/28 07:49:07;;;;;;;5.40;4.53;;;14.30;93.00;;;;;;4991237;28;20192;-81
2023/04/28 07:51:33;;;;;;;5.20;4.13;;;14.30;92.30;;;;;;4983972;28;20199;-79
2023/04/28 07:53:59;;;;;;;8.10;4.70;;;14.40;92.30;;;;;;4986331;28;20483;-90
2023/04/28 07:56:25;;;;;;;4.97;3.67;;;14.50;91.40;;;;;;4993435;28;20985;-88
2023/04/28 07:58:51;;;;;;;4.80;3.30;;;14.60;90.80;;;;;;4994097;28;20534;-87
2023/04/28 08:01:17;;;;;;;5.47;4.17;;;14.80;90.50;;;;;;4973948;28;20729;-87
2023/04/28 08:03:43;;;;;;;4.93;3.70;;;15.00;90.00;;;;;;4974957;28;20445;-80
2023/04/28 08:06:09;;;;;;;4.70;3.97;;;15.20;89.60;;;;;;4987721;28;20518;-87
2023/04/28 08:08:34;;;;;;;5.83;4.13;;;15.30;87.40;;;;;;4984097;28;20191;-81
2023/04/28 08:11:00;;;;;;;4.43;3.57;;;15.30;88.20;;;;;;4985268;28;20207;-80
2023/04/28 08:13:27;;;;;;;5.90;4.30;;;15.30;87.10;;;;;;4980557;28;20474;-88
2023/04/28 08:15:55;;;;;;;9.00;4.87;;;15.40;87.30;;;;;;4977191;28;20450;-81
2023/04/28 08:18:21;;;;;;;8.40;4.53;;;15.40;87.40;;;;;;4989054;28;20417;-87
2023/04/28 08:20:47;;;;;;;5.63;4.33;;;15.50;87.70;;;;;;4987246;28;20453;-88
2023/04/28 08:23:12;;;;;;;4.27;3.87;;;15.50;88.00;;;;;;4986256;28;20452;-88
2023/04/28 08:25:38;;;;;;;4.60;4.07;;;15.50;86.90;;;;;;4974617;28;20267;-88
2023/04/28 08:28:05;;;;;;;4.20;3.90;;;15.50;87.50;;;;;;4974495;28;20189;-81
2023/04/28 08:30:31;;;;;;;6.63;4.53;;;15.50;86.10;;;;;;4974792;28;20217;-89
2023/04/28 08:32:56;;;;;;;8.43;3.90;;;15.40;87.70;;;;;;4974915;28;20990;-86
2023/04/28 08:35:22;;;;;;;4.37;3.97;;;15.60;88.30;;;;;;4976633;28;20457;-81
2023/04/28 08:37:48;;;;;;;6.60;4.50;;;15.70;87.20;;;;;;4971686;28;20184;-89
2023/04/28 08:40:16;;;;;;;5.13;4.60;;;15.90;87.20;;;;;;4981001;28;20208;-80
2023/04/28 08:42:44;;;;;;;5.10;4.60;;;15.90;84.80;;;;;;4975798;28;20278;-80
2023/04/28 08:45:13;;;;;;;6.97;4.57;;;16.00;85.00;;;;;;4973498;28;20470;-88
2023/04/28 08:47:44;;;;;;;6.83;4.40;;;16.10;85.00;;;;;;4971313;28;20417;-89
2023/04/28 08:50:11;;;;;;;4.80;4.30;;;16.00;85.80;;;;;;4982897;28;20465;-88
2023/04/28 08:52:38;;;;;;;7.37;4.27;;;16.00;85.80;;;;;;4982036;28;20555;-81
2023/04/28 08:55:11;;;;;;;6.63;4.33;;;16.00;85.40;;;;;;4986120;28;20442;-88
2023/04/28 08:57:50;;;;;;;5.20;4.27;;;16.00;85.80;;;;;;4970184;28;21238;-89
2023/04/28 09:00:16;;;;;;;5.70;4.20;;;16.10;86.60;;;;;;4979657;28;20446;-81
2023/04/28 09:02:42;;;;;;;4.57;4.13;;;16.30;85.50;;;;;;4982752;28;20856;-87
2023/04/28 09:05:09;;;;;;;6.20;3.77;;;16.60;84.70;;;;;;4982551;28;20224;-80
2023/04/28 09:07:35;;;;;;;5.00;4.00;;;16.80;85.00;;;;;;4981968;28;20430;-90
2023/04/28 09:10:17;;;;;;;4.93;3.90;;;16.70;82.60;;;;;;4983320;28;20539;-89
2023/04/28 09:12:43;;;;;;;5.40;4.10;;;16.70;82.30;;;;;;4995262;28;20497;-89
2023/04/28 09:15:09;;;;;;;4.87;4.10;;;16.70;82.10;;;;;;4980520;28;20539;-81
2023/04/28 09:17:48;;;;;;;5.73;4.33;;;16.70;83.70;;;;;;4985715;28;20474;-89
2023/04/28 09:20:25;;;;;;;7.00;4.30;;;16.70;83.10;;;;;;4984118;28;20520;-82
2023/04/28 09:22:52;;;;;;;4.73;3.70;;;16.80;82.10;;;;;;4993632;28;20975;-80
2023/04/28 09:25:20;;;;;;;6.03;4.07;;;17.00;83.80;;;;;;4987672;28;20457;-81
2023/04/28 09:27:46;;;;;;;4.40;3.80;;;17.20;83.40;;;;;;4979839;28;20425;-81
2023/04/28 09:30:12;;;;;;;6.20;4.37;;;17.30;83.70;;;;;;4977551;28;20462;-90
2023/04/28 09:32:39;;;;;;;6.30;4.00;;;17.50;84.60;;;;;;4984347;28;20466;-90
2023/04/28 09:35:06;;;;;;;16.57;10.50;;;17.70;82.30;;;;;;4976045;28;20430;-81
2023/04/28 09:37:33;;;;;;;18.47;11.90;;;17.60;80.60;;;;;;4978110;28;21068;-80
2023/04/28 09:40:07;;;;;;;6.93;5.60;;;17.40;81.50;;;;;;4986657;28;20468;-88
2023/04/28 09:42:41;;;;;;;11.30;9.07;;;17.20;82.00;;;;;;4990621;28;20487;-80
2023/04/28 09:45:10;;;;;;;12.03;7.73;;;17.10;81.30;;;;;;4975627;28;20541;-88
2023/04/28 09:47:41;;;;;;;7.73;4.70;;;16.90;82.10;;;;;;4981164;28;20992;-80
2023/04/28 09:50:10;;;;;;;6.70;5.53;;;17.00;82.00;;;;;;4975326;28;20961;-81
2023/04/28 09:52:36;;;;;;;5.33;4.83;;;16.80;81.50;;;;;;4977406;28;20460;-81
2023/04/28 09:55:04;;;;;;;7.67;4.47;;;16.80;82.80;;;;;;4979418;28;20452;-90
2023/04/28 09:57:32;;;;;;;5.40;4.90;;;16.90;81.20;;;;;;4981017;28;20208;-89
2023/04/28 09:59:58;;;;;;;5.27;4.40;;;17.00;84.00;;;;;;4980183;28;20457;-81
2023/04/28 10:02:25;;;;;;;5.67;4.90;;;17.30;83.10;;;;;;4986573;28;20414;-81
2023/04/28 10:04:51;;;;;;;5.13;4.63;;;17.60;81.50;;;;;;4976074;28;20483;-81
2023/04/28 10:07:19;;;;;;;5.07;4.57;;;17.90;83.70;;;;;;4978914;28;20958;-87
2023/04/28 10:09:49;;;;;;;8.23;4.60;;;18.10;80.50;;;;;;4978624;28;20454;-84
2023/04/28 10:12:22;;;;;;;6.83;4.40;;;18.10;81.50;;;;;;4981117;28;21034;-90
2023/04/28 10:14:49;;;;;;;7.07;4.40;;;18.30;82.60;;;;;;4990555;28;20866;-89
2023/04/28 10:17:16;;;;;;;7.57;4.67;;;18.50;81.50;;;;;;4980130;28;20461;-88
2023/04/28 10:19:44;;;;;;;9.30;4.57;;;18.60;80.30;;;;;;4990469;28;20442;-81
2023/04/28 10:22:44;;;;;;;4.80;4.13;;;18.50;80.10;;;;;;4992111;28;20476;-82
2023/04/28 10:25:13;;;;;;;9.43;5.00;;;18.60;79.40;;;;;;4981184;28;20578;-82
2023/04/28 10:27:42;;;;;;;7.07;4.87;;;18.40;80.10;;;;;;4988956;28;20419;-90
2023/04/28 10:30:20;;;;;;;5.97;4.63;;;18.30;79.40;;;;;;4994952;28;20984;-81
2023/04/28 10:32:47;;;;;;;5.90;4.10;;;18.30;77.90;;;;;;4978605;28;20485;-90
2023/04/28 10:35:28;;;;;;;5.17;3.90;;;18.00;78.50;;;;;;4985423;28;20979;-82
2023/04/28 10:38:26;;;;;;;6.20;3.83;;;18.00;79.10;;;;;;4981924;28;20449;-89
2023/04/28 10:40:53;;;;;;;5.10;4.30;;;18.10;79.70;;;;;;4968776;28;20914;-81
2023/04/28 10:43:25;;;;;;;7.23;4.20;;;18.30;78.80;;;;;;4983181;28;20496;-90
2023/04/28 10:45:59;;;;;;;5.17;4.20;;;18.20;79.50;;;;;;4974981;28;20520;-81
2023/04/28 10:48:28;;;;;;;5.00;3.90;;;18.20;80.20;;;;;;4975389;28;20854;-89
2023/04/28 10:51:08;;;;;;;6.00;4.83;;;18.40;78.90;;;;;;4979113;28;20504;-90
2023/04/28 10:53:43;;;;;;;4.03;3.63;;;18.50;79.00;;;;;;4986576;28;20481;-90
2023/04/28 10:56:17;;;;;;;5.67;4.27;;;18.60;79.50;;;;;;4978974;28;20889;-82
2023/04/28 10:58:56;;;;;;;8.00;4.10;;;18.60;79.60;;;;;;4978943;28;20469;-90
2023/04/28 11:01:25;;;;;;;4.30;3.90;;;18.70;78.10;;;;;;4977769;28;20572;-80
2023/04/28 11:03:58;;;;;;;5.90;3.93;;;18.80;77.40;;;;;;4975657;28;20751;-88
2023/04/28 11:06:38;;;;;;;4.27;3.30;;;18.90;78.60;;;;;;4977775;28;20456;-88
2023/04/28 11:09:13;;;;;;;7.87;3.90;;;18.80;77.30;;;;;;4978457;28;20947;-80
2023/04/28 11:11:59;;;;;;;4.37;4.00;;;18.50;76.90;;;;;;4979119;28;20453;-80
2023/04/28 11:14:25;;;;;;;4.73;4.07;;;18.20;78.10;;;;;;4974573;28;20998;-80
2023/04/28 11:17:12;;;;;;;4.20;3.80;;;18.20;79.00;;;;;;4984785;28;20714;-80
2023/04/28 11:19:38;;;;;;;4.57;3.30;;;18.50;77.50;;;;;;4984418;28;20767;-80
2023/04/28 11:22:16;;;;;;;4.07;3.70;;;18.30;77.40;;;;;;4984578;28;20434;-89
2023/04/28 11:25:02;;;;;;;4.70;3.47;;;18.20;76.30;;;;;;4979639;28;21008;-81
2023/04/28 11:27:30;;;;;;;4.60;4.17;;;18.30;78.50;;;;;;4979039;28;20611;-89
2023/04/28 11:29:55;;;;;;;3.80;3.50;;;18.30;76.80;;;;;;4976460;28;20807;-90
2023/04/28 11:32:28;;;;;;;4.63;3.73;;;18.40;75.50;;;;;;4983019;28;20896;-81
2023/04/28 11:34:54;;;;;;;5.27;3.97;;;18.40;75.70;;;;;;4983196;28;20228;-89
2023/04/28 11:37:20;;;;;;;8.83;5.17;;;18.30;75.50;;;;;;4983503;28;20432;-89
2023/04/28 11:39:46;;;;;;;6.70;3.80;;;18.30;77.50;;;;;;4979115;28;20180;-81
2023/04/28 11:42:12;;;;;;;5.53;4.07;;;18.40;77.90;;;;;;4980891;28;20428;-89
2023/04/28 11:44:38;;;;;;;6.43;3.57;;;18.60;76.80;;;;;;4978764;28;20447;-81
2023/04/28 11:47:05;;;;;;;4.80;3.60;;;18.60;76.60;;;;;;4982567;28;20178;-81
2023/04/28 11:49:38;;;;;;;5.33;3.63;;;18.60;77.30;;;;;;4982009;28;20816;-81
2023/04/28 11:52:06;;;;;;;4.50;4.10;;;18.70;76.80;;;;;;4985297;28;20916;-90
2023/04/28 11:54:32;;;;;;;3.97;3.60;;;19.00;77.80;;;;;;4979642;28;20989;-89
2023/04/28 11:56:59;;;;;;;4.53;3.90;;;18.80;75.80;;;;;;4982181;28;20478;-89
2023/04/28 11:59:27;;;;;;;4.93;3.93;;;18.90;75.80;;;;;;4983255;28;20442;-81
2023/04/28 12:01:56;;;;;;;5.27;4.10;;;19.00;75.80;;;;;;4985714;28;20925;-81
2023/04/28 12:04:37;;;;;;;8.23;4.37;;;18.90;76.20;;;;;;4977237;28;21805;-81
2023/04/28 12:07:14;;;;;;;7.30;3.80;;;19.00;75.40;;;;;;4989817;28;20451;-90
2023/04/28 12:09:45;;;;;;;5.67;3.70;;;19.00;76.50;;;;;;4973913;28;20447;-89
2023/04/28 12:12:26;;;;;;;4.60;3.73;;;19.00;75.40;;;;;;4982411;28;20817;-81
2023/04/28 12:14:53;;;;;;;3.90;3.50;;;19.00;75.60;;;;;;4986553;28;20924;-89
2023/04/28 12:17:24;;;;;;;6.60;4.00;;;19.00;75.80;;;;;;4988906;28;20418;-90
2023/04/28 12:19:49;;;;;;;4.00;3.50;;;19.00;74.00;;;;;;4991009;28;20447;-82
2023/04/28 12:22:16;;;;;;;5.77;3.60;;;19.10;74.10;;;;;;4997448;28;20406;-81
2023/04/28 12:24:42;;;;;;;3.70;3.20;;;19.20;74.60;;;;;;5005702;28;20184;-81
2023/04/28 12:27:23;;;;;;;6.97;4.27;;;19.10;75.70;;;;;;4991030;28;20935;-82
2023/04/28 12:29:50;;;;;;;4.67;4.17;;;19.10;75.50;;;;;;4989780;28;20511;-83
2023/04/28 12:32:17;;;;;;;4.10;3.70;;;19.10;74.60;;;;;;4986599;28;20412;-87
2023/04/28 12:34:44;;;;;;;7.60;3.80;;;19.00;74.10;;;;;;4987921;28;20623;-90
2023/04/28 12:37:11;;;;;;;5.37;4.10;;;19.10;74.90;;;;;;4985185;28;20421;-81
2023/04/28 12:39:39;;;;;;;6.57;3.83;;;19.00;74.40;;;;;;4986158;28;20447;-80
2023/04/28 12:42:06;;;;;;;4.37;3.60;;;18.90;74.80;;;;;;4978585;28;20547;-89